createdAt,value
2023-04-29T00:01:40.862Z,3.55
2023-04-29T00:04:08.123Z,4.40
2023-04-29T00:06:34.995Z,7.53
2023-04-29T00:09:01.823Z,2.75
2023-04-29T00:11:28.470Z,4.78
2023-04-29T00:13:55.179Z,2.08
2023-04-29T00:16:22.210Z,2.90
2023-04-29T00:18:49.456Z,3.83
2023-04-29T00:21:16.500Z,3.35
2023-04-29T00:23:43.314Z,3.10
2023-04-29T00:26:10.155Z,6.78
2023-04-29T00:28:37.205Z,4.30
2023-04-29T00:31:04.366Z,4.88
2023-04-29T00:33:31.227Z,4.25
2023-04-29T00:35:58.089Z,3.97
2023-04-29T00:38:25.147Z,4.00
2023-04-29T00:40:52.212Z,3.55
2023-04-29T00:43:19.007Z,2.83
2023-04-29T00:45:47.232Z,1.95
2023-04-29T00:48:23.236Z,2.22
2023-04-29T00:50:51.639Z,2.40
2023-04-29T00:53:18.726Z,2.33
2023-04-29T00:55:48.056Z,2.55
2023-04-29T00:58:15.179Z,2.05
2023-04-29T01:00:43.931Z,3.85
2023-04-29T01:03:11.084Z,3.72
2023-04-29T01:05:38.223Z,3.90
2023-04-29T01:08:29.146Z,2.75
2023-04-29T01:11:12.004Z,3.28
2023-04-29T01:14:06.242Z,2.60
2023-04-29T01:16:49.941Z,2.17
2023-04-29T01:19:20.395Z,2.50
2023-04-29T01:21:51.934Z,2.55
2023-04-29T01:24:18.602Z,4.35
2023-04-29T01:26:54.626Z,2.25
2023-04-29T01:29:32.170Z,4.85
2023-04-29T01:32:05.749Z,2.50
2023-04-29T01:34:53.703Z,3.10
2023-04-29T01:37:39.274Z,3.55
2023-04-29T01:40:25.062Z,4.43
2023-04-29T01:43:03.578Z,4.13
2023-04-29T01:45:34.324Z,3.72
2023-04-29T01:48:03.143Z,3.40
2023-04-29T01:50:31.983Z,5.00
2023-04-29T01:52:58.823Z,4.07
2023-04-29T01:55:26.138Z,4.28
2023-04-29T01:57:52.938Z,4.55
2023-04-29T02:00:19.634Z,4.15
2023-04-29T02:02:46.654Z,4.60
2023-04-29T02:05:13.618Z,4.00
2023-04-29T02:07:42.049Z,4.10
2023-04-29T02:10:09.255Z,4.25
2023-04-29T02:12:36.629Z,6.05
2023-04-29T02:15:03.607Z,4.32
2023-04-29T02:17:30.583Z,6.63
2023-04-29T02:19:57.564Z,9.68
2023-04-29T02:22:24.524Z,4.50
2023-04-29T02:24:52.218Z,3.88
2023-04-29T02:27:19.329Z,5.72
2023-04-29T02:29:46.222Z,5.32
2023-04-29T02:32:15.514Z,6.65
2023-04-29T02:34:42.423Z,5.75
2023-04-29T02:37:09.327Z,3.50
2023-04-29T02:39:36.075Z,4.43
2023-04-29T02:42:03.428Z,3.40
2023-04-29T02:44:31.568Z,2.97
2023-04-29T02:46:58.749Z,5.82
2023-04-29T02:49:26.150Z,6.28
2023-04-29T02:51:53.491Z,6.22
2023-04-29T02:54:20.882Z,4.63
2023-04-29T02:56:47.924Z,2.85
2023-04-29T02:59:14.824Z,7.13
2023-04-29T03:01:42.151Z,4.80
2023-04-29T03:04:09.323Z,5.03
2023-04-29T03:06:36.627Z,4.28
2023-04-29T03:09:04.185Z,5.82
2023-04-29T03:14:06.312Z,5.95
2023-04-29T03:16:33.407Z,5.82
2023-04-29T03:19:00.244Z,3.05
2023-04-29T03:21:27.762Z,3.33
2023-04-29T03:23:54.937Z,7.25
2023-04-29T03:26:24.487Z,5.75
2023-04-29T03:28:51.964Z,9.15
2023-04-29T03:31:21.134Z,7.05
2023-04-29T03:33:48.072Z,4.72
2023-04-29T03:36:15.596Z,9.73
2023-04-29T03:38:42.535Z,5.20
2023-04-29T03:41:09.429Z,8.32
2023-04-29T03:43:36.322Z,5.78
2023-04-29T03:46:03.075Z,7.07
2023-04-29T03:48:29.865Z,4.80
2023-04-29T03:50:56.869Z,5.85
2023-04-29T03:53:23.814Z,8.18
2023-04-29T03:55:50.538Z,5.78
2023-04-29T03:58:17.481Z,6.82
2023-04-29T04:00:44.233Z,10.63
2023-04-29T04:03:11.467Z,8.60
2023-04-29T04:05:41.601Z,3.45
2023-04-29T04:08:08.422Z,10.70
2023-04-29T04:10:35.261Z,6.70
2023-04-29T04:13:02.316Z,5.82
2023-04-29T04:15:29.080Z,4.30
2023-04-29T04:17:55.912Z,6.75
2023-04-29T04:20:22.794Z,4.25
2023-04-29T04:22:49.553Z,9.10
2023-04-29T04:25:16.471Z,4.55
2023-04-29T04:27:43.355Z,5.95
2023-04-29T04:30:10.477Z,9.20
2023-04-29T04:32:37.351Z,5.75
2023-04-29T04:35:04.402Z,11.65
2023-04-29T04:37:31.205Z,5.88
2023-04-29T04:39:58.034Z,5.88
2023-04-29T04:42:25.028Z,7.07
2023-04-29T04:44:53.760Z,8.75
2023-04-29T04:47:20.533Z,5.90
2023-04-29T04:49:47.423Z,5.47
2023-04-29T04:52:14.308Z,9.85
2023-04-29T04:54:41.392Z,9.02
2023-04-29T04:57:08.252Z,12.63
2023-04-29T04:59:35.171Z,7.50
2023-04-29T05:02:02.431Z,8.68
2023-04-29T05:04:29.319Z,11.43
2023-04-29T05:06:56.267Z,8.80
2023-04-29T05:09:23.700Z,10.68
2023-04-29T05:11:50.481Z,11.13
2023-04-29T05:14:18.255Z,13.95
2023-04-29T05:16:46.808Z,12.23
2023-04-29T05:19:14.512Z,10.20
2023-04-29T05:21:41.246Z,13.10
2023-04-29T05:24:10.990Z,11.13
2023-04-29T05:26:38.484Z,10.73
2023-04-29T05:29:06.977Z,11.18
2023-04-29T05:31:33.889Z,12.38
2023-04-29T05:34:00.769Z,11.60
2023-04-29T05:36:28.264Z,10.27
2023-04-29T05:38:54.997Z,15.32
2023-04-29T05:41:22.250Z,10.63
2023-04-29T05:43:48.986Z,11.43
2023-04-29T05:46:16.778Z,11.60
2023-04-29T05:48:43.596Z,14.02
2023-04-29T05:51:10.480Z,12.00
2023-04-29T05:53:38.585Z,15.07
2023-04-29T05:56:08.359Z,11.98
2023-04-29T05:58:35.687Z,9.52
2023-04-29T06:01:03.252Z,10.77
2023-04-29T06:03:31.517Z,12.55
2023-04-29T06:05:59.116Z,15.25
2023-04-29T06:08:26.473Z,11.48
2023-04-29T06:10:53.353Z,11.77
2023-04-29T06:13:20.137Z,10.15
2023-04-29T06:15:47.009Z,10.52
2023-04-29T06:18:13.985Z,12.43
2023-04-29T06:20:43.948Z,9.70
2023-04-29T06:23:10.736Z,12.10
2023-04-29T06:25:37.695Z,15.25
2023-04-29T06:28:04.656Z,14.35
2023-04-29T06:30:31.322Z,8.88
2023-04-29T06:32:58.346Z,15.55
2023-04-29T06:35:25.404Z,11.25
2023-04-29T06:37:52.973Z,8.65
2023-04-29T06:40:20.267Z,8.63
2023-04-29T06:42:47.499Z,11.00
2023-04-29T06:45:14.645Z,10.05
2023-04-29T06:47:41.433Z,18.83
2023-04-29T06:50:09.075Z,11.82
2023-04-29T06:52:35.911Z,9.95
2023-04-29T06:55:03.550Z,5.72
2023-04-29T06:57:30.290Z,6.93
2023-04-29T06:59:57.313Z,9.07
2023-04-29T07:02:24.116Z,8.32
2023-04-29T07:04:51.433Z,10.10
2023-04-29T07:07:18.244Z,9.13
2023-04-29T07:09:45.300Z,4.93
2023-04-29T07:12:12.024Z,11.27
2023-04-29T07:14:38.884Z,6.10
2023-04-29T07:17:06.384Z,7.78
2023-04-29T07:19:33.347Z,9.00
2023-04-29T07:22:00.091Z,6.25
2023-04-29T07:24:26.977Z,8.50
2023-04-29T07:26:54.045Z,5.38
2023-04-29T07:29:20.907Z,4.75
2023-04-29T07:31:48.632Z,10.05
2023-04-29T07:34:15.397Z,5.65
2023-04-29T07:36:42.156Z,7.03
2023-04-29T07:39:09.483Z,8.48
2023-04-29T07:41:38.146Z,7.38
2023-04-29T07:44:05.176Z,6.50
2023-04-29T07:46:32.185Z,6.20
2023-04-29T07:48:59.260Z,8.73
2023-04-29T07:51:35.073Z,6.25
2023-04-29T07:54:02.348Z,5.68
2023-04-29T07:56:29.146Z,10.70
2023-04-29T07:58:56.030Z,7.85
2023-04-29T08:01:23.234Z,6.93
2023-04-29T08:03:50.520Z,8.30
2023-04-29T08:06:20.942Z,6.13
2023-04-29T08:08:48.503Z,4.13
2023-04-29T08:11:21.767Z,6.15
2023-04-29T08:13:48.944Z,10.90
2023-04-29T08:16:16.104Z,5.68
2023-04-29T08:18:43.213Z,9.07
2023-04-29T08:21:11.943Z,7.63
2023-04-29T08:23:41.737Z,6.80
2023-04-29T08:26:11.155Z,6.75
2023-04-29T08:28:38.423Z,6.43
2023-04-29T08:31:10.873Z,9.68
2023-04-29T08:33:37.676Z,8.90
2023-04-29T08:36:04.792Z,4.82
2023-04-29T08:38:32.180Z,4.03
2023-04-29T08:40:58.917Z,3.88
2023-04-29T08:43:27.016Z,6.32
2023-04-29T08:45:54.499Z,3.72
2023-04-29T08:48:24.936Z,4.28
2023-04-29T08:50:52.068Z,7.07
2023-04-29T08:53:19.237Z,4.20
2023-04-29T08:55:47.406Z,3.72
2023-04-29T08:58:15.659Z,5.68
2023-04-29T09:00:43.887Z,2.80
2023-04-29T09:03:34.982Z,3.53
2023-04-29T09:06:03.551Z,3.40
2023-04-29T09:08:30.458Z,3.38
2023-04-29T09:10:58.632Z,4.03
2023-04-29T09:13:30.425Z,5.53
2023-04-29T09:18:42.749Z,4.72
2023-04-29T09:21:24.323Z,3.47
2023-04-29T09:23:56.620Z,4.45
2023-04-29T09:26:24.299Z,2.50
2023-04-29T09:29:08.245Z,2.85
2023-04-29T09:31:35.476Z,4.00
2023-04-29T09:34:02.299Z,3.63
2023-04-29T09:36:41.036Z,8.52
2023-04-29T09:39:19.257Z,4.82
2023-04-29T09:41:55.890Z,5.00
2023-04-29T09:44:24.733Z,3.72
2023-04-29T09:47:05.329Z,5.53
2023-04-29T09:49:33.722Z,6.38
2023-04-29T09:52:02.044Z,3.10
2023-04-29T09:54:31.123Z,5.50
2023-04-29T09:57:00.277Z,4.63
2023-04-29T09:59:27.335Z,6.65
2023-04-29T10:01:58.155Z,2.50
2023-04-29T10:04:27.334Z,4.70
2023-04-29T10:06:56.177Z,4.75
2023-04-29T10:09:23.940Z,3.45
2023-04-29T10:11:53.046Z,5.97
2023-04-29T10:14:22.028Z,5.22
2023-04-29T10:16:51.242Z,4.78
2023-04-29T10:19:35.981Z,6.18
2023-04-29T10:22:11.456Z,4.75
2023-04-29T10:24:39.660Z,5.03
2023-04-29T10:27:13.474Z,5.13
2023-04-29T10:29:41.739Z,4.63
2023-04-29T10:32:13.757Z,3.35
2023-04-29T10:34:42.983Z,7.40
2023-04-29T10:37:13.728Z,3.85
2023-04-29T10:39:51.122Z,4.05
2023-04-29T10:42:33.945Z,3.33
2023-04-29T10:45:20.284Z,5.75
2023-04-29T10:48:13.403Z,4.85
2023-04-29T10:51:03.813Z,4.07
2023-04-29T10:53:30.893Z,2.92
2023-04-29T10:56:09.856Z,5.50
2023-04-29T10:58:44.975Z,2.08
2023-04-29T11:01:17.085Z,3.00
2023-04-29T11:03:55.657Z,2.60
2023-04-29T11:06:24.731Z,3.80
2023-04-29T11:09:15.014Z,3.55
2023-04-29T11:12:02.958Z,4.60
2023-04-29T11:14:43.900Z,2.60
2023-04-29T11:17:15.826Z,3.53
2023-04-29T11:19:47.224Z,5.95
2023-04-29T11:22:21.695Z,3.78
2023-04-29T11:25:00.517Z,4.13
2023-04-29T11:27:34.837Z,2.88
2023-04-29T11:30:06.355Z,3.63
2023-04-29T11:32:39.305Z,5.88
2023-04-29T11:35:16.776Z,3.42
2023-04-29T11:37:47.530Z,5.10
2023-04-29T11:40:15.316Z,2.13
2023-04-29T11:42:48.020Z,4.63
2023-04-29T11:45:18.528Z,5.15
2023-04-29T11:47:47.068Z,5.32
2023-04-29T11:50:17.966Z,3.67
2023-04-29T11:52:47.263Z,3.55
2023-04-29T11:55:14.896Z,6.90
2023-04-29T11:57:41.972Z,4.40
2023-04-29T12:00:13.091Z,1.83
2023-04-29T12:02:43.885Z,2.97
2023-04-29T12:05:13.296Z,3.47
2023-04-29T12:07:40.562Z,2.88
2023-04-29T12:10:12.011Z,3.38
2023-04-29T12:12:41.477Z,3.13
2023-04-29T12:15:10.486Z,5.05
2023-04-29T12:17:38.432Z,6.00
2023-04-29T12:20:12.326Z,3.72
2023-04-29T12:22:39.773Z,2.97
2023-04-29T12:25:08.147Z,1.83
2023-04-29T12:27:36.512Z,3.63
2023-04-29T12:30:10.787Z,5.28
2023-04-29T12:32:38.967Z,2.58
2023-04-29T12:35:06.624Z,6.88
2023-04-29T12:37:34.216Z,7.78
2023-04-29T12:40:01.145Z,5.47
2023-04-29T12:42:34.229Z,4.25
2023-04-29T12:45:01.164Z,3.63
2023-04-29T12:47:37.667Z,4.65
2023-04-29T12:50:07.374Z,3.08
2023-04-29T12:52:36.553Z,5.10
2023-04-29T12:55:05.185Z,3.67
2023-04-29T12:57:32.404Z,5.22
2023-04-29T12:59:59.664Z,3.47
2023-04-29T13:02:28.136Z,2.90
2023-04-29T13:04:55.469Z,2.67
2023-04-29T13:07:22.596Z,3.00
2023-04-29T13:09:52.697Z,2.97
2023-04-29T13:12:19.554Z,5.38
2023-04-29T13:14:46.473Z,4.05
2023-04-29T13:17:16.414Z,5.18
2023-04-29T13:19:57.583Z,3.65
2023-04-29T13:22:24.567Z,6.28
2023-04-29T13:25:32.593Z,3.40
2023-04-29T13:28:18.252Z,5.88
2023-04-29T13:30:45.280Z,5.13
2023-04-29T13:33:16.437Z,3.55
2023-04-29T13:35:44.579Z,5.47
2023-04-29T13:38:15.648Z,4.32
2023-04-29T13:40:46.961Z,5.18
2023-04-29T13:43:20.928Z,4.45
2023-04-29T13:59:36.159Z,5.68
2023-04-29T14:04:31.211Z,4.28
2023-04-29T14:07:01.946Z,8.20
2023-04-29T14:09:42.498Z,3.63
2023-04-29T15:01:01.684Z,5.38
2023-04-29T15:04:09.270Z,6.10
2023-04-29T15:06:44.484Z,5.18
2023-04-29T15:09:11.567Z,6.63
2023-04-29T16:46:26.350Z,3.00
2023-04-29T16:49:33.620Z,4.88
2023-04-29T16:55:05.974Z,7.65
2023-04-29T18:00:57.101Z,6.68
2023-04-29T18:03:42.066Z,5.05
2023-04-29T18:06:09.740Z,7.07
2023-04-29T18:08:42.548Z,4.90
2023-04-29T18:14:09.264Z,6.25
2023-04-29T19:56:39.550Z,5.78
2023-04-29T19:59:06.900Z,6.78
2023-04-29T20:01:34.185Z,5.70
2023-04-29T20:04:08.439Z,4.72
2023-04-29T20:12:55.747Z,8.05
2023-04-29T20:15:22.960Z,5.47
2023-04-29T20:17:49.733Z,7.07
2023-04-29T20:20:16.852Z,7.60
2023-04-29T20:22:43.976Z,6.88
2023-04-29T20:25:11.279Z,4.70
2023-04-29T20:27:43.583Z,5.20
2023-04-29T20:30:10.717Z,7.22
2023-04-29T20:32:38.173Z,6.15
2023-04-29T20:35:06.040Z,8.23
2023-04-29T20:37:37.414Z,8.55
2023-04-29T20:40:08.309Z,8.75
2023-04-29T20:42:50.392Z,9.65
2023-04-29T22:09:00.549Z,5.28
2023-04-29T22:11:27.672Z,5.97
2023-04-29T22:13:55.249Z,6.53
2023-04-29T22:16:24.095Z,5.82
2023-04-29T22:19:02.098Z,6.30
2023-04-29T22:21:29.374Z,4.75
2023-04-29T22:24:03.668Z,5.30
